createdAt,value
2019-04-07T00:02:19.945Z,5.60
2019-04-07T00:04:49.586Z,5.70
2019-04-07T00:07:19.597Z,5.70
2019-04-07T00:09:49.366Z,5.70
2019-04-07T00:12:18.883Z,5.80
2019-04-07T00:14:48.687Z,5.80
2019-04-07T00:17:18.135Z,5.80
2019-04-07T00:19:48.074Z,5.70
2019-04-07T00:22:18.501Z,5.70
2019-04-07T00:24:48.019Z,5.70
2019-04-07T00:27:17.923Z,5.60
2019-04-07T00:29:47.382Z,5.50
2019-04-07T00:32:16.919Z,5.50
2019-04-07T00:34:46.822Z,5.40
2019-04-07T00:37:17.121Z,5.30
2019-04-07T00:39:46.841Z,5.30
2019-04-07T00:42:16.263Z,5.30
2019-04-07T00:44:45.720Z,5.40
2019-04-07T00:47:17.510Z,5.30
2019-04-07T00:49:47.538Z,5.40
2019-04-07T00:52:19.489Z,5.40
2019-04-07T00:54:49.027Z,5.40
2019-04-07T00:57:18.491Z,5.30
2019-04-07T00:59:48.834Z,5.20
2019-04-07T01:02:20.356Z,5.30
2019-04-07T01:04:49.926Z,5.20
2019-04-07T01:07:19.614Z,5.20
2019-04-07T01:09:49.594Z,5.10
2019-04-07T01:12:19.396Z,5.00
2019-04-07T01:14:49.026Z,5.00
2019-04-07T01:17:19.203Z,4.90
2019-04-07T01:19:48.684Z,4.80
2019-04-07T01:22:18.585Z,4.70
2019-04-07T01:24:48.719Z,4.60
2019-04-07T01:27:18.477Z,4.60
2019-04-07T01:29:49.083Z,4.50
2019-04-07T01:32:19.194Z,4.50
2019-04-07T01:34:49.275Z,4.40
2019-04-07T01:37:18.876Z,4.40
2019-04-07T01:39:49.216Z,4.40
2019-04-07T01:42:49.979Z,4.40
2019-04-07T01:45:31.910Z,4.30
2019-04-07T01:48:26.849Z,4.30
2019-04-07T01:51:04.496Z,4.20
2019-04-07T01:54:05.334Z,4.10
2019-04-07T01:57:09.251Z,4.10
2019-04-07T02:00:03.529Z,4.00
2019-04-07T02:02:52.062Z,4.00
2019-04-07T02:05:31.920Z,4.00
2019-04-07T02:08:29.792Z,3.90
2019-04-07T02:11:22.079Z,3.90
2019-04-07T02:14:16.525Z,3.80
2019-04-07T02:17:10.946Z,3.80
2019-04-07T02:20:02.649Z,3.80
2019-04-07T02:22:49.774Z,3.80
2019-04-07T02:25:38.436Z,3.70
2019-04-07T02:28:30.770Z,3.60
2019-04-07T02:31:25.245Z,3.50
2019-04-07T02:34:13.518Z,3.40
2019-04-07T02:36:53.943Z,3.50
2019-04-07T02:39:32.998Z,3.40
2019-04-07T02:42:13.134Z,3.40
2019-04-07T02:45:01.311Z,3.40
2019-04-07T02:47:45.469Z,3.40
2019-04-07T02:50:34.880Z,3.30
2019-04-07T02:53:13.561Z,3.30
2019-04-07T02:56:10.970Z,3.20
2019-04-07T02:58:55.222Z,3.20
2019-04-07T03:01:50.035Z,3.20
2019-04-07T03:04:38.355Z,3.10
2019-04-07T03:07:32.851Z,3.10
2019-04-07T03:10:31.299Z,3.10
2019-04-07T03:13:18.650Z,3.10
2019-04-07T03:16:10.578Z,3.00
2019-04-07T03:19:00.183Z,3.00
2019-04-07T03:21:55.882Z,3.00
2019-04-07T03:24:42.362Z,2.90
2019-04-07T03:27:33.900Z,3.00
2019-04-07T03:30:27.942Z,2.90
2019-04-07T03:33:16.529Z,2.90
2019-04-07T03:35:56.861Z,2.90
2019-04-07T03:38:43.385Z,2.90
2019-04-07T03:41:44.282Z,2.80
2019-04-07T03:44:38.450Z,2.80
2019-04-07T03:47:18.617Z,2.70
2019-04-07T03:50:03.199Z,2.80
2019-04-07T03:52:51.872Z,2.70
2019-04-07T03:55:32.484Z,2.70
2019-04-07T03:58:30.936Z,2.70
2019-04-07T04:01:28.502Z,2.60
2019-04-07T04:04:15.737Z,2.70
2019-04-07T04:07:28.238Z,2.80
2019-04-07T04:10:12.066Z,2.70
2019-04-07T04:13:07.058Z,2.70
2019-04-07T04:15:54.257Z,2.80
2019-04-07T04:18:23.766Z,2.70
2019-04-07T04:20:54.222Z,2.80
2019-04-07T04:23:24.295Z,2.80
2019-04-07T04:25:54.317Z,2.80
2019-04-07T04:28:23.825Z,2.80
2019-04-07T04:30:53.723Z,2.80
2019-04-07T04:33:23.621Z,2.90
2019-04-07T04:35:53.844Z,3.00
2019-04-07T04:38:24.231Z,3.00
2019-04-07T04:40:53.909Z,3.20
2019-04-07T04:43:23.495Z,3.20
2019-04-07T04:45:53.474Z,3.30
2019-04-07T04:48:23.779Z,3.30
2019-04-07T04:50:53.404Z,3.40
2019-04-07T04:53:24.073Z,3.50
2019-04-07T04:55:53.790Z,3.60
2019-04-07T04:58:23.324Z,3.60
2019-04-07T05:00:53.055Z,3.80
2019-04-07T05:03:22.564Z,3.90
2019-04-07T05:05:52.385Z,4.00
2019-04-07T05:08:22.012Z,4.00
2019-04-07T05:10:51.968Z,4.20
2019-04-07T05:13:21.624Z,4.40
2019-04-07T05:15:51.310Z,4.50
2019-04-07T05:18:22.229Z,4.60
2019-04-07T05:20:55.306Z,4.70
2019-04-07T05:23:25.158Z,4.80
2019-04-07T05:25:55.716Z,4.90
2019-04-07T05:28:25.475Z,5.00
2019-04-07T05:30:54.906Z,5.10
2019-04-07T05:33:25.373Z,5.20
2019-04-07T05:35:55.717Z,5.30
2019-04-07T05:38:25.613Z,5.40
2019-04-07T05:40:55.377Z,5.50
2019-04-07T05:43:25.188Z,5.60
2019-04-07T05:45:55.464Z,5.70
2019-04-07T05:48:25.036Z,5.80
2019-04-07T05:50:56.157Z,5.80
2019-04-07T05:53:25.633Z,5.90
2019-04-07T05:55:56.085Z,6.10
2019-04-07T05:58:25.752Z,6.10
2019-04-07T06:00:55.353Z,6.30
2019-04-07T06:03:25.383Z,6.30
2019-04-07T06:05:55.023Z,6.40
2019-04-07T06:08:33.740Z,6.50
2019-04-07T06:11:00.362Z,6.60
2019-04-07T06:13:27.029Z,6.70
2019-04-07T06:15:56.576Z,6.90
2019-04-07T06:18:26.297Z,7.00
2019-04-07T06:20:56.427Z,7.00
2019-04-07T06:23:29.474Z,7.20
2019-04-07T06:25:59.132Z,7.20
2019-04-07T06:28:28.332Z,7.30
2019-04-07T06:31:00.831Z,7.40
2019-04-07T06:33:29.854Z,7.50
2019-04-07T06:36:00.446Z,7.60
2019-04-07T06:38:34.158Z,7.60
2019-04-07T07:49:49.751Z,14.80
2019-04-07T07:52:21.020Z,14.80
2019-04-07T07:54:51.867Z,15.10
2019-04-07T08:09:56.835Z,14.80
2019-04-07T08:12:27.225Z,15.70
2019-04-07T08:14:58.540Z,16.70
2019-04-07T08:17:33.173Z,17.30
2019-04-07T08:20:02.372Z,18.00
2019-04-07T08:25:03.143Z,18.20
2019-04-07T08:27:33.142Z,18.50
2019-04-07T08:30:02.717Z,19.40
2019-04-07T08:32:33.416Z,19.00
2019-04-07T08:35:05.603Z,19.60
2019-04-07T08:37:35.214Z,19.70
2019-04-07T08:40:07.385Z,19.60
2019-04-07T08:42:36.936Z,19.30
2019-04-07T08:45:08.149Z,19.70
2019-04-07T08:47:38.110Z,20.50
2019-04-07T08:50:08.464Z,19.80
2019-04-07T08:52:40.826Z,19.80
2019-04-07T08:55:09.351Z,20.70
2019-04-07T08:57:40.083Z,21.90
2019-04-07T09:00:14.923Z,21.60
2019-04-07T09:02:44.716Z,20.80
2019-04-07T09:05:20.637Z,21.00
2019-04-07T09:07:47.839Z,20.90
2019-04-07T09:10:39.388Z,20.40
2019-04-07T09:13:09.540Z,21.70
2019-04-07T09:15:48.844Z,21.20
2019-04-07T09:18:23.373Z,21.90
2019-04-07T09:21:15.619Z,20.70
2019-04-07T09:24:02.597Z,21.20
2019-04-07T09:26:40.589Z,21.60
2019-04-07T09:29:19.069Z,21.60
2019-04-07T09:32:13.383Z,21.90
2019-04-07T09:35:02.057Z,22.30
2019-04-07T09:38:03.168Z,22.10
2019-04-07T09:40:40.513Z,22.10
2019-04-07T09:43:26.291Z,21.80
2019-04-07T09:46:13.654Z,22.20
2019-04-07T09:49:11.349Z,22.30
2019-04-07T09:51:57.786Z,21.60
2019-04-07T09:54:46.197Z,21.80
2019-04-07T09:57:40.817Z,22.40
2019-04-07T10:03:24.286Z,21.40
2019-04-07T10:06:09.893Z,21.70
2019-04-07T10:08:52.259Z,23.50
2019-04-07T10:11:37.388Z,23.40
2019-04-07T10:14:29.545Z,22.40
2019-04-07T10:25:28.005Z,19.90
2019-04-07T10:33:50.584Z,21.80
2019-04-07T10:36:39.730Z,23.50
2019-04-07T10:39:14.352Z,23.10
2019-04-07T10:42:06.667Z,23.60
2019-04-07T10:44:41.220Z,23.20
2019-04-07T10:47:29.146Z,23.30
2019-04-07T10:50:11.166Z,23.40
2019-04-07T10:53:03.739Z,24.20
2019-04-07T10:55:58.392Z,24.40
2019-04-07T10:58:34.820Z,23.80
2019-04-07T11:01:37.879Z,23.10
2019-04-07T11:04:27.257Z,24.50
2019-04-07T11:07:13.022Z,24.00
2019-04-07T11:12:35.722Z,22.80
2019-04-07T11:18:29.793Z,23.30
2019-04-07T11:24:22.054Z,23.40
2019-04-07T11:27:15.167Z,24.30
2019-04-07T11:29:48.624Z,23.80
2019-04-07T11:32:37.371Z,23.90
2019-04-07T11:35:21.120Z,24.40
2019-04-07T11:38:19.803Z,23.70
2019-04-07T11:44:02.047Z,24.10
2019-04-07T11:46:57.520Z,23.80
2019-04-07T11:52:27.908Z,24.30
2019-04-07T11:55:14.881Z,24.70
2019-04-07T11:58:06.360Z,25.10
2019-04-07T12:03:28.922Z,24.20
2019-04-07T12:14:54.649Z,23.70
2019-04-07T12:17:33.001Z,24.10
2019-04-07T12:20:26.854Z,25.00
2019-04-07T12:23:04.810Z,24.90
2019-04-07T12:25:56.692Z,24.70
2019-04-07T12:31:40.581Z,25.60
2019-04-07T12:34:35.489Z,25.80
2019-04-07T12:37:17.589Z,25.70
2019-04-07T12:40:24.201Z,25.90
2019-04-07T12:54:33.088Z,25.70
2019-04-07T12:57:39.910Z,26.00
2019-04-07T13:00:54.474Z,26.20
2019-04-07T13:03:30.059Z,26.60
2019-04-07T13:06:18.456Z,26.70
2019-04-07T13:11:47.008Z,25.80
2019-04-07T13:20:19.705Z,26.30
2019-04-07T13:34:43.120Z,26.90
2019-04-07T15:23:05.469Z,20.60
2019-04-07T15:25:35.494Z,20.20
2019-04-07T15:28:05.155Z,19.20
2019-04-07T15:30:34.664Z,18.50
2019-04-07T15:33:06.074Z,18.20
2019-04-07T15:35:38.508Z,18.20
2019-04-07T15:38:08.771Z,18.00
2019-04-07T15:40:39.700Z,17.80
2019-04-07T15:48:10.453Z,17.20
2019-04-07T15:50:39.885Z,17.40
2019-04-07T15:53:13.440Z,17.00
2019-04-07T15:55:49.697Z,17.00
2019-04-07T15:58:13.381Z,16.80
2019-04-07T16:00:44.184Z,16.80
2019-04-07T16:03:15.759Z,16.90
2019-04-07T16:05:46.512Z,16.90
2019-04-07T16:08:16.170Z,16.50
2019-04-07T16:10:46.671Z,16.50
2019-04-07T16:13:17.331Z,16.50
2019-04-07T16:15:50.927Z,16.40
2019-04-07T16:18:18.874Z,16.20
2019-04-07T16:20:49.564Z,16.20
2019-04-07T16:23:19.542Z,16.20
2019-04-07T16:25:49.299Z,16.10
2019-04-07T16:28:18.765Z,16.00
2019-04-07T16:30:51.451Z,15.80
2019-04-07T16:33:19.498Z,15.40
2019-04-07T16:35:54.010Z,15.60
2019-04-07T16:38:20.638Z,15.40
2019-04-07T16:40:50.232Z,15.20
2019-04-07T16:43:20.186Z,15.20
2019-04-07T16:45:50.641Z,15.10
2019-04-07T16:48:20.862Z,14.90
2019-04-07T16:50:53.935Z,14.90
2019-04-07T16:53:21.821Z,14.80
2019-04-07T16:55:54.293Z,14.70
2019-04-07T16:58:24.443Z,14.60
2019-04-07T17:00:54.809Z,14.50
2019-04-07T17:03:24.492Z,14.30
2019-04-07T17:05:57.356Z,14.00
2019-04-07T17:08:26.700Z,13.70
2019-04-07T17:10:56.864Z,13.50
2019-04-07T17:13:33.924Z,13.30
2019-04-07T17:15:57.521Z,13.10
2019-04-07T17:18:43.269Z,13.00
2019-04-07T17:21:20.843Z,12.70
2019-04-07T17:23:55.387Z,12.60
2019-04-07T17:26:24.148Z,12.40
2019-04-07T17:28:56.752Z,12.20
2019-04-07T17:31:28.088Z,12.20
2019-04-07T17:33:56.810Z,12.00
2019-04-07T17:36:26.311Z,11.80
2019-04-07T17:39:14.715Z,11.60
2019-04-07T17:44:41.380Z,11.30
2019-04-07T17:47:43.185Z,11.20
2019-04-07T17:50:22.141Z,11.10
2019-04-07T17:53:12.903Z,10.90
2019-04-07T17:56:02.151Z,10.80
2019-04-07T17:58:38.416Z,10.70
2019-04-07T18:01:30.374Z,10.50
2019-04-07T18:04:13.951Z,10.40
2019-04-07T18:07:03.627Z,10.30
2019-04-07T18:09:45.723Z,10.30
2019-04-07T18:12:34.481Z,10.10
2019-04-07T18:15:23.179Z,10.00
2019-04-07T18:18:12.197Z,9.90
2019-04-07T18:20:57.135Z,9.80
2019-04-07T18:23:45.681Z,9.70
2019-04-07T18:26:25.102Z,9.60
2019-04-07T18:29:07.992Z,9.50
2019-04-07T18:31:48.918Z,9.40
2019-04-07T18:34:36.613Z,9.30
2019-04-07T18:37:25.795Z,9.20
2019-04-07T18:40:26.495Z,9.10
2019-04-07T18:43:12.831Z,9.00
2019-04-07T18:46:08.458Z,8.90
2019-04-07T18:49:10.339Z,8.70
2019-04-07T18:52:13.757Z,8.70
2019-04-07T18:55:05.750Z,8.70
2019-04-07T18:57:51.882Z,8.60
2019-04-07T19:00:39.272Z,8.40
2019-04-07T19:03:14.431Z,8.40
2019-04-07T19:06:16.668Z,8.30
2019-04-07T19:08:57.473Z,8.20
2019-04-07T19:11:42.777Z,8.20
2019-04-07T19:14:38.024Z,8.00
2019-04-07T19:17:21.715Z,8.00
2019-04-07T19:20:15.058Z,8.00
2019-04-07T19:22:56.006Z,7.90
2019-04-07T19:25:48.747Z,7.80
2019-04-07T19:28:20.255Z,7.70
2019-04-07T19:31:21.598Z,7.60
2019-04-07T19:33:59.835Z,7.50
2019-04-07T19:36:48.665Z,7.50
2019-04-07T19:39:40.555Z,7.50
2019-04-07T19:42:39.125Z,7.40
2019-04-07T19:45:31.780Z,7.40
2019-04-07T19:48:19.049Z,7.20
2019-04-07T19:51:06.883Z,7.20
2019-04-07T19:53:44.231Z,7.10
2019-04-07T19:56:31.440Z,7.00
2019-04-07T19:59:19.558Z,6.90
2019-04-07T20:02:03.586Z,6.90
2019-04-07T20:04:53.491Z,6.90
2019-04-07T20:08:02.590Z,6.80
2019-04-07T20:10:49.952Z,6.70
2019-04-07T20:13:40.435Z,6.60
2019-04-07T20:16:17.425Z,6.60
2019-04-07T20:19:04.849Z,6.50
2019-04-07T20:21:55.822Z,6.40
2019-04-07T20:24:38.050Z,6.30
2019-04-07T20:27:29.433Z,6.20
2019-04-07T20:30:21.226Z,6.20
2019-04-07T20:33:09.891Z,6.10
2019-04-07T20:35:55.488Z,6.10
2019-04-07T20:38:37.952Z,6.00
2019-04-07T20:41:38.327Z,5.90
2019-04-07T20:44:15.995Z,5.80
2019-04-07T20:47:07.895Z,5.70
2019-04-07T20:50:02.597Z,5.70
2019-04-07T20:52:40.476Z,5.60
2019-04-07T20:55:17.797Z,5.50
2019-04-07T20:58:15.204Z,5.50
2019-04-07T21:00:58.667Z,5.50
2019-04-07T21:03:45.049Z,5.40
2019-04-07T21:06:27.556Z,5.30
2019-04-07T21:09:19.487Z,5.30
2019-04-07T21:12:00.881Z,5.30
2019-04-07T21:14:49.367Z,5.20
2019-04-07T21:17:40.986Z,5.10
2019-04-07T21:20:18.628Z,5.10
2019-04-07T21:22:57.794Z,5.10
2019-04-07T21:25:47.358Z,5.00
2019-04-07T21:28:35.202Z,4.90
2019-04-07T21:31:22.931Z,4.90
2019-04-07T21:34:12.366Z,4.80
2019-04-07T21:37:13.293Z,4.80
2019-04-07T21:40:06.304Z,4.80
2019-04-07T21:42:56.245Z,4.70
2019-04-07T21:45:43.666Z,4.70
2019-04-07T21:48:32.083Z,4.70
2019-04-07T21:51:23.675Z,4.60
2019-04-07T21:54:11.997Z,4.60
2019-04-07T21:57:02.287Z,4.50
2019-04-07T21:59:40.458Z,4.50
2019-04-07T22:02:33.390Z,4.40
2019-04-07T22:05:12.045Z,4.50
2019-04-07T22:08:03.676Z,4.40
2019-04-07T22:10:30.779Z,4.20
2019-04-07T22:13:04.112Z,4.20
2019-04-07T22:15:45.047Z,4.10
2019-04-07T22:18:07.529Z,4.10
2019-04-07T22:20:34.910Z,4.10
2019-04-07T22:23:08.240Z,4.10
2019-04-07T22:25:46.162Z,4.00
2019-04-07T22:28:15.779Z,3.90
2019-04-07T22:30:45.245Z,3.90
2019-04-07T22:33:15.839Z,3.90
2019-04-07T22:35:45.390Z,3.80
2019-04-07T22:38:15.045Z,3.80
2019-04-07T22:40:45.746Z,3.80
2019-04-07T22:43:17.894Z,3.70
2019-04-07T22:45:55.749Z,3.70
2019-04-07T22:48:18.429Z,3.70
2019-04-07T22:50:48.386Z,3.70
2019-04-07T22:53:22.562Z,3.70
2019-04-07T22:55:48.981Z,3.60
2019-04-07T22:58:18.474Z,3.60
2019-04-07T23:00:48.236Z,3.60
2019-04-07T23:03:17.750Z,3.50
2019-04-07T23:05:47.404Z,3.50
2019-04-07T23:08:16.944Z,3.50
2019-04-07T23:10:46.404Z,3.50
2019-04-07T23:13:16.619Z,3.40
2019-04-07T23:15:48.513Z,3.40
2019-04-07T23:18:18.459Z,3.40
2019-04-07T23:20:47.993Z,3.50
2019-04-07T23:23:17.608Z,3.40
2019-04-07T23:25:47.319Z,3.40
2019-04-07T23:28:16.782Z,3.30
2019-04-07T23:30:47.179Z,3.20
2019-04-07T23:33:16.824Z,3.20
2019-04-07T23:35:46.860Z,3.20
2019-04-07T23:38:16.682Z,3.20
2019-04-07T23:40:46.352Z,3.10
2019-04-07T23:43:15.832Z,3.10
2019-04-07T23:45:45.557Z,3.00
2019-04-07T23:48:15.853Z,3.00
2019-04-07T23:50:46.558Z,3.00
2019-04-07T23:53:52.582Z,2.90
2019-04-07T23:56:22.110Z,2.80
2019-04-07T23:58:52.046Z,2.80
